sensor_id;sensor_type;location;lat;lon;timestamp;P1;durP1;ratioP1;P2;durP2;ratioP2
71176;SDS011;58877;51.992;4.504;2022-09-17T00:00:57;4.80;;;2.64;;
71176;SDS011;58877;51.992;4.504;2022-09-17T00:03:23;5.28;;;2.91;;
71176;SDS011;58877;51.992;4.504;2022-09-17T00:05:55;7.66;;;4.22;;
71176;SDS011;58877;51.992;4.504;2022-09-17T00:08:24;6.18;;;3.39;;
71176;SDS011;58877;51.992;4.504;2022-09-17T00:10:50;7.13;;;3.91;;
71176;SDS011;58877;51.992;4.504;2022-09-17T00:13:15;8.68;;;4.77;;
71176;SDS011;58877;51.992;4.504;2022-09-17T00:15:41;6.80;;;3.79;;
71176;SDS011;58877;51.992;4.504;2022-09-17T00:18:09;7.12;;;4.00;;
71176;SDS011;58877;51.992;4.504;2022-09-17T00:20:39;6.91;;;3.86;;
71176;SDS011;58877;51.992;4.504;2022-09-17T00:23:07;6.86;;;3.87;;
71176;SDS011;58877;51.992;4.504;2022-09-17T00:25:36;7.78;;;4.37;;
71176;SDS011;58877;51.992;4.504;2022-09-17T00:28:02;5.55;;;3.13;;
71176;SDS011;58877;51.992;4.504;2022-09-17T00:30:28;6.74;;;3.77;;
71176;SDS011;58877;51.992;4.504;2022-09-17T00:32:55;5.76;;;3.21;;
71176;SDS011;58877;51.992;4.504;2022-09-17T00:35:22;5.96;;;3.33;;
71176;SDS011;58877;51.992;4.504;2022-09-17T00:37:48;6.41;;;3.57;;
71176;SDS011;58877;51.992;4.504;2022-09-17T00:40:14;5.60;;;3.12;;
71176;SDS011;58877;51.992;4.504;2022-09-17T00:42:40;5.45;;;3.06;;
71176;SDS011;58877;51.992;4.504;2022-09-17T00:45:05;6.05;;;3.40;;
71176;SDS011;58877;51.992;4.504;2022-09-17T00:47:39;6.78;;;3.82;;
71176;SDS011;58877;51.992;4.504;2022-09-17T00:50:22;6.06;;;3.41;;
71176;SDS011;58877;51.992;4.504;2022-09-17T00:53:03;5.95;;;3.33;;
71176;SDS011;58877;51.992;4.504;2022-09-17T00:55:33;7.74;;;4.32;;
71176;SDS011;58877;51.992;4.504;2022-09-17T00:58:03;5.40;;;3.02;;
71176;SDS011;58877;51.992;4.504;2022-09-17T01:00:32;6.00;;;3.35;;
71176;SDS011;58877;51.992;4.504;2022-09-17T01:02:59;6.43;;;3.58;;
71176;SDS011;58877;51.992;4.504;2022-09-17T01:05:38;5.71;;;3.19;;
71176;SDS011;58877;51.992;4.504;2022-09-17T01:08:37;7.24;;;4.03;;
71176;SDS011;58877;51.992;4.504;2022-09-17T01:11:25;8.22;;;4.57;;
71176;SDS011;58877;51.992;4.504;2022-09-17T01:35:46;5.92;;;3.32;;
71176;SDS011;58877;51.992;4.504;2022-09-17T01:38:23;5.40;;;3.04;;
71176;SDS011;58877;51.992;4.504;2022-09-17T01:43:51;6.76;;;3.79;;
71176;SDS011;58877;51.992;4.504;2022-09-17T01:46:36;7.51;;;4.21;;
71176;SDS011;58877;51.992;4.504;2022-09-17T01:49:11;7.32;;;4.07;;
71176;SDS011;58877;51.992;4.504;2022-09-17T01:51:41;5.56;;;3.09;;
71176;SDS011;58877;51.992;4.504;2022-09-17T01:56:54;7.42;;;4.15;;
71176;SDS011;58877;51.992;4.504;2022-09-17T01:59:33;7.51;;;4.18;;
71176;SDS011;58877;51.992;4.504;2022-09-17T02:02:22;6.94;;;3.87;;
71176;SDS011;58877;51.992;4.504;2022-09-17T02:04:57;9.03;;;5.02;;
71176;SDS011;58877;51.992;4.504;2022-09-17T02:07:37;8.56;;;4.75;;
71176;SDS011;58877;51.992;4.504;2022-09-17T02:10:14;7.48;;;4.13;;
71176;SDS011;58877;51.992;4.504;2022-09-17T02:12:49;8.63;;;4.84;;
71176;SDS011;58877;51.992;4.504;2022-09-17T02:15:25;7.35;;;4.12;;
71176;SDS011;58877;51.992;4.504;2022-09-17T02:18:05;6.60;;;3.70;;
71176;SDS011;58877;51.992;4.504;2022-09-17T02:20:56;8.43;;;4.71;;
71176;SDS011;58877;51.992;4.504;2022-09-17T02:23:33;7.91;;;4.38;;
71176;SDS011;58877;51.992;4.504;2022-09-17T02:26:04;7.68;;;4.26;;
71176;SDS011;58877;51.992;4.504;2022-09-17T02:28:40;8.26;;;4.61;;
71176;SDS011;58877;51.992;4.504;2022-09-17T02:31:15;8.55;;;4.81;;
71176;SDS011;58877;51.992;4.504;2022-09-17T02:33:42;8.70;;;4.88;;
71176;SDS011;58877;51.992;4.504;2022-09-17T02:36:13;7.94;;;4.45;;
71176;SDS011;58877;51.992;4.504;2022-09-17T02:38:40;7.85;;;4.38;;
71176;SDS011;58877;51.992;4.504;2022-09-17T02:41:15;7.97;;;4.47;;
71176;SDS011;58877;51.992;4.504;2022-09-17T02:43:56;8.41;;;4.70;;
71176;SDS011;58877;51.992;4.504;2022-09-17T02:46:41;8.26;;;4.59;;
71176;SDS011;58877;51.992;4.504;2022-09-17T02:49:25;7.02;;;3.90;;
71176;SDS011;58877;51.992;4.504;2022-09-17T02:52:14;5.02;;;2.79;;
71176;SDS011;58877;51.992;4.504;2022-09-17T03:00:23;4.25;;;2.41;;
71176;SDS011;58877;51.992;4.504;2022-09-17T03:05:24;4.90;;;2.75;;
71176;SDS011;58877;51.992;4.504;2022-09-17T03:07:56;5.17;;;2.90;;
71176;SDS011;58877;51.992;4.504;2022-09-17T03:10:24;5.63;;;3.14;;
71176;SDS011;58877;51.992;4.504;2022-09-17T03:12:53;5.85;;;3.26;;
71176;SDS011;58877;51.992;4.504;2022-09-17T03:15:18;7.09;;;3.97;;
71176;SDS011;58877;51.992;4.504;2022-09-17T03:17:44;6.37;;;3.58;;
71176;SDS011;58877;51.992;4.504;2022-09-17T03:20:09;6.99;;;3.88;;
71176;SDS011;58877;51.992;4.504;2022-09-17T03:22:35;5.57;;;3.09;;
71176;SDS011;58877;51.992;4.504;2022-09-17T03:25:01;6.41;;;3.55;;
71176;SDS011;58877;51.992;4.504;2022-09-17T03:27:26;5.46;;;3.00;;
71176;SDS011;58877;51.992;4.504;2022-09-17T03:29:52;6.48;;;3.57;;
71176;SDS011;58877;51.992;4.504;2022-09-17T03:32:17;5.98;;;3.32;;
71176;SDS011;58877;51.992;4.504;2022-09-17T03:34:43;5.52;;;3.05;;
71176;SDS011;58877;51.992;4.504;2022-09-17T03:37:11;7.24;;;3.98;;
71176;SDS011;58877;51.992;4.504;2022-09-17T03:39:37;4.99;;;2.74;;
71176;SDS011;58877;51.992;4.504;2022-09-17T03:42:02;5.21;;;2.86;;
71176;SDS011;58877;51.992;4.504;2022-09-17T03:44:28;5.53;;;3.05;;
71176;SDS011;58877;51.992;4.504;2022-09-17T03:46:53;3.63;;;2.03;;
71176;SDS011;58877;51.992;4.504;2022-09-17T03:49:19;4.38;;;2.44;;
71176;SDS011;58877;51.992;4.504;2022-09-17T03:51:44;5.34;;;2.97;;
71176;SDS011;58877;51.992;4.504;2022-09-17T03:54:10;5.59;;;3.10;;
71176;SDS011;58877;51.992;4.504;2022-09-17T03:56:36;6.18;;;3.43;;
71176;SDS011;58877;51.992;4.504;2022-09-17T03:59:02;6.63;;;3.69;;
71176;SDS011;58877;51.992;4.504;2022-09-17T04:01:27;5.30;;;2.95;;
71176;SDS011;58877;51.992;4.504;2022-09-17T04:03:53;4.71;;;2.63;;
71176;SDS011;58877;51.992;4.504;2022-09-17T04:06:19;4.82;;;2.69;;
71176;SDS011;58877;51.992;4.504;2022-09-17T04:08:45;4.99;;;2.80;;
71176;SDS011;58877;51.992;4.504;2022-09-17T04:11:10;5.26;;;2.96;;
71176;SDS011;58877;51.992;4.504;2022-09-17T04:13:36;5.06;;;2.86;;
71176;SDS011;58877;51.992;4.504;2022-09-17T04:16:02;6.16;;;3.45;;
71176;SDS011;58877;51.992;4.504;2022-09-17T04:18:27;5.55;;;3.08;;
71176;SDS011;58877;51.992;4.504;2022-09-17T04:20:53;6.54;;;3.58;;
71176;SDS011;58877;51.992;4.504;2022-09-17T04:23:18;5.04;;;2.76;;
71176;SDS011;58877;51.992;4.504;2022-09-17T04:25:44;5.43;;;3.00;;
71176;SDS011;58877;51.992;4.504;2022-09-17T04:28:10;4.11;;;2.30;;
71176;SDS011;58877;51.992;4.504;2022-09-17T04:30:36;4.77;;;2.68;;
71176;SDS011;58877;51.992;4.504;2022-09-17T04:33:02;5.51;;;3.09;;
71176;SDS011;58877;51.992;4.504;2022-09-17T04:35:28;4.05;;;2.25;;
71176;SDS011;58877;51.992;4.504;2022-09-17T04:37:55;3.64;;;2.02;;
71176;SDS011;58877;51.992;4.504;2022-09-17T04:40:22;5.18;;;2.86;;
71176;SDS011;58877;51.992;4.504;2022-09-17T04:42:52;4.62;;;2.56;;
71176;SDS011;58877;51.992;4.504;2022-09-17T04:45:19;4.97;;;2.74;;
71176;SDS011;58877;51.992;4.504;2022-09-17T04:47:45;5.05;;;2.79;;
71176;SDS011;58877;51.992;4.504;2022-09-17T04:50:10;4.18;;;2.31;;
71176;SDS011;58877;51.992;4.504;2022-09-17T04:52:36;6.88;;;3.78;;
71176;SDS011;58877;51.992;4.504;2022-09-17T04:55:01;3.86;;;2.12;;
71176;SDS011;58877;51.992;4.504;2022-09-17T04:57:27;5.28;;;2.91;;
71176;SDS011;58877;51.992;4.504;2022-09-17T04:59:53;5.46;;;3.00;;
71176;SDS011;58877;51.992;4.504;2022-09-17T05:02:18;5.60;;;3.09;;
71176;SDS011;58877;51.992;4.504;2022-09-17T05:04:44;4.89;;;2.70;;
71176;SDS011;58877;51.992;4.504;2022-09-17T05:07:09;4.92;;;2.71;;
71176;SDS011;58877;51.992;4.504;2022-09-17T05:09:35;5.76;;;3.16;;
71176;SDS011;58877;51.992;4.504;2022-09-17T05:12:00;4.45;;;2.44;;
71176;SDS011;58877;51.992;4.504;2022-09-17T05:14:26;3.75;;;2.04;;
71176;SDS011;58877;51.992;4.504;2022-09-17T05:16:51;3.59;;;1.96;;
71176;SDS011;58877;51.992;4.504;2022-09-17T05:19:17;4.40;;;2.40;;
71176;SDS011;58877;51.992;4.504;2022-09-17T05:21:42;4.74;;;2.59;;
71176;SDS011;58877;51.992;4.504;2022-09-17T05:24:08;5.24;;;2.88;;
71176;SDS011;58877;51.992;4.504;2022-09-17T05:26:33;4.31;;;2.38;;
71176;SDS011;58877;51.992;4.504;2022-09-17T05:28:59;5.40;;;2.97;;
71176;SDS011;58877;51.992;4.504;2022-09-17T05:31:25;4.39;;;2.40;;
71176;SDS011;58877;51.992;4.504;2022-09-17T05:33:50;5.31;;;2.89;;
71176;SDS011;58877;51.992;4.504;2022-09-17T05:36:16;4.86;;;2.66;;
71176;SDS011;58877;51.992;4.504;2022-09-17T05:38:41;4.95;;;2.71;;
71176;SDS011;58877;51.992;4.504;2022-09-17T05:41:07;4.55;;;2.51;;
71176;SDS011;58877;51.992;4.504;2022-09-17T05:43:33;4.65;;;2.58;;
71176;SDS011;58877;51.992;4.504;2022-09-17T05:46:00;4.49;;;2.50;;
71176;SDS011;58877;51.992;4.504;2022-09-17T05:48:29;5.38;;;3.00;;
71176;SDS011;58877;51.992;4.504;2022-09-17T05:50:55;4.80;;;2.71;;
71176;SDS011;58877;51.992;4.504;2022-09-17T05:53:21;5.01;;;2.83;;
71176;SDS011;58877;51.992;4.504;2022-09-17T05:55:46;4.94;;;2.76;;
71176;SDS011;58877;51.992;4.504;2022-09-17T05:58:13;4.90;;;2.72;;
71176;SDS011;58877;51.992;4.504;2022-09-17T06:00:41;5.10;;;2.85;;
71176;SDS011;58877;51.992;4.504;2022-09-17T06:03:11;4.17;;;2.35;;
71176;SDS011;58877;51.992;4.504;2022-09-17T06:05:40;4.42;;;2.52;;
71176;SDS011;58877;51.992;4.504;2022-09-17T06:08:06;3.99;;;2.29;;
71176;SDS011;58877;51.992;4.504;2022-09-17T06:10:36;3.92;;;2.25;;
71176;SDS011;58877;51.992;4.504;2022-09-17T06:13:03;3.99;;;2.29;;
71176;SDS011;58877;51.992;4.504;2022-09-17T06:15:29;5.26;;;3.00;;
71176;SDS011;58877;51.992;4.504;2022-09-17T06:17:55;4.58;;;2.59;;
71176;SDS011;58877;51.992;4.504;2022-09-17T06:20:21;4.33;;;2.46;;
71176;SDS011;58877;51.992;4.504;2022-09-17T06:22:47;4.24;;;2.41;;
71176;SDS011;58877;51.992;4.504;2022-09-17T06:25:13;4.71;;;2.67;;
71176;SDS011;58877;51.992;4.504;2022-09-17T06:27:39;6.16;;;3.47;;
71176;SDS011;58877;51.992;4.504;2022-09-17T06:30:05;4.92;;;2.76;;
71176;SDS011;58877;51.992;4.504;2022-09-17T06:32:31;5.39;;;3.01;;
71176;SDS011;58877;51.992;4.504;2022-09-17T06:34:57;5.29;;;2.93;;
71176;SDS011;58877;51.992;4.504;2022-09-17T06:37:27;4.58;;;2.55;;
71176;SDS011;58877;51.992;4.504;2022-09-17T06:39:54;5.34;;;2.98;;
71176;SDS011;58877;51.992;4.504;2022-09-17T06:42:20;4.88;;;2.72;;
71176;SDS011;58877;51.992;4.504;2022-09-17T06:44:45;5.44;;;3.06;;
71176;SDS011;58877;51.992;4.504;2022-09-17T06:47:14;4.72;;;2.66;;
71176;SDS011;58877;51.992;4.504;2022-09-17T06:49:40;4.79;;;2.67;;
71176;SDS011;58877;51.992;4.504;2022-09-17T06:52:05;4.11;;;2.29;;
71176;SDS011;58877;51.992;4.504;2022-09-17T06:54:31;4.04;;;2.27;;
71176;SDS011;58877;51.992;4.504;2022-09-17T06:56:56;3.82;;;2.17;;
71176;SDS011;58877;51.992;4.504;2022-09-17T06:59:22;3.96;;;2.26;;
71176;SDS011;58877;51.992;4.504;2022-09-17T07:01:47;4.00;;;2.28;;
71176;SDS011;58877;51.992;4.504;2022-09-17T07:04:13;3.30;;;1.87;;
71176;SDS011;58877;51.992;4.504;2022-09-17T07:06:38;3.91;;;2.22;;
71176;SDS011;58877;51.992;4.504;2022-09-17T07:09:04;4.44;;;2.52;;
71176;SDS011;58877;51.992;4.504;2022-09-17T07:11:31;5.14;;;2.93;;
71176;SDS011;58877;51.992;4.504;2022-09-17T07:13:57;5.55;;;3.16;;
71176;SDS011;58877;51.992;4.504;2022-09-17T07:16:23;3.96;;;2.26;;
71176;SDS011;58877;51.992;4.504;2022-09-17T07:18:50;4.33;;;2.46;;
71176;SDS011;58877;51.992;4.504;2022-09-17T07:21:16;3.39;;;1.94;;
71176;SDS011;58877;51.992;4.504;2022-09-17T07:23:41;4.20;;;2.42;;
71176;SDS011;58877;51.992;4.504;2022-09-17T07:26:09;5.17;;;2.97;;
71176;SDS011;58877;51.992;4.504;2022-09-17T07:28:38;4.90;;;2.79;;
71176;SDS011;58877;51.992;4.504;2022-09-17T07:31:04;5.75;;;3.26;;
71176;SDS011;58877;51.992;4.504;2022-09-17T07:33:30;4.58;;;2.61;;
71176;SDS011;58877;51.992;4.504;2022-09-17T07:35:57;5.19;;;2.95;;
71176;SDS011;58877;51.992;4.504;2022-09-17T07:38:25;4.93;;;2.78;;
71176;SDS011;58877;51.992;4.504;2022-09-17T07:41:02;4.17;;;2.33;;
71176;SDS011;58877;51.992;4.504;2022-09-17T07:43:31;4.74;;;2.67;;
71176;SDS011;58877;51.992;4.504;2022-09-17T07:45:58;4.72;;;2.68;;
71176;SDS011;58877;51.992;4.504;2022-09-17T07:48:26;4.87;;;2.76;;
71176;SDS011;58877;51.992;4.504;2022-09-17T07:50:53;3.85;;;2.19;;
71176;SDS011;58877;51.992;4.504;2022-09-17T07:53:19;3.61;;;2.04;;
71176;SDS011;58877;51.992;4.504;2022-09-17T07:55:54;3.57;;;2.00;;
71176;SDS011;58877;51.992;4.504;2022-09-17T07:58:28;3.43;;;1.93;;
71176;SDS011;58877;51.992;4.504;2022-09-17T08:00:59;3.97;;;2.25;;
71176;SDS011;58877;51.992;4.504;2022-09-17T08:03:29;3.56;;;2.00;;
71176;SDS011;58877;51.992;4.504;2022-09-17T08:06:00;3.80;;;2.12;;
71176;SDS011;58877;51.992;4.504;2022-09-17T08:08:30;3.43;;;1.91;;
71176;SDS011;58877;51.992;4.504;2022-09-17T08:11:04;3.77;;;2.11;;
71176;SDS011;58877;51.992;4.504;2022-09-17T08:13:32;4.28;;;2.43;;
71176;SDS011;58877;51.992;4.504;2022-09-17T08:15:59;2.84;;;1.64;;
71176;SDS011;58877;51.992;4.504;2022-09-17T08:18:29;2.53;;;1.46;;
71176;SDS011;58877;51.992;4.504;2022-09-17T08:20:56;2.84;;;1.65;;
71176;SDS011;58877;51.992;4.504;2022-09-17T08:23:23;2.81;;;1.64;;
71176;SDS011;58877;51.992;4.504;2022-09-17T08:25:53;2.39;;;1.40;;
71176;SDS011;58877;51.992;4.504;2022-09-17T08:28:20;2.83;;;1.65;;
71176;SDS011;58877;51.992;4.504;2022-09-17T08:30:46;2.21;;;1.29;;
71176;SDS011;58877;51.992;4.504;2022-09-17T08:33:12;2.70;;;1.56;;
71176;SDS011;58877;51.992;4.504;2022-09-17T08:35:38;2.72;;;1.57;;
71176;SDS011;58877;51.992;4.504;2022-09-17T08:38:05;3.14;;;1.81;;
71176;SDS011;58877;51.992;4.504;2022-09-17T08:40:31;3.76;;;2.21;;
71176;SDS011;58877;51.992;4.504;2022-09-17T08:43:08;2.97;;;1.78;;
71176;SDS011;58877;51.992;4.504;2022-09-17T08:45:40;2.81;;;1.68;;
71176;SDS011;58877;51.992;4.504;2022-09-17T08:48:07;3.24;;;1.90;;
71176;SDS011;58877;51.992;4.504;2022-09-17T08:50:38;2.26;;;1.32;;
71176;SDS011;58877;51.992;4.504;2022-09-17T08:53:09;2.83;;;1.65;;
71176;SDS011;58877;51.992;4.504;2022-09-17T09:01:37;3.99;;;2.26;;
71176;SDS011;58877;51.992;4.504;2022-09-17T09:07:11;3.17;;;1.79;;
71176;SDS011;58877;51.992;4.504;2022-09-17T09:09:49;3.63;;;2.03;;
71176;SDS011;58877;51.992;4.504;2022-09-17T09:12:29;1.94;;;1.08;;
71176;SDS011;58877;51.992;4.504;2022-09-17T09:15:05;3.91;;;2.17;;
71176;SDS011;58877;51.992;4.504;2022-09-17T09:17:48;3.41;;;1.90;;
71176;SDS011;58877;51.992;4.504;2022-09-17T09:20:18;2.93;;;1.62;;
71176;SDS011;58877;51.992;4.504;2022-09-17T09:23:09;4.65;;;2.57;;
71176;SDS011;58877;51.992;4.504;2022-09-17T09:25:49;4.39;;;2.46;;
71176;SDS011;58877;51.992;4.504;2022-09-17T09:33:47;3.13;;;1.75;;
71176;SDS011;58877;51.992;4.504;2022-09-17T09:36:15;2.43;;;1.36;;
71176;SDS011;58877;51.992;4.504;2022-09-17T09:38:51;4.59;;;2.56;;
71176;SDS011;58877;51.992;4.504;2022-09-17T09:44:07;3.03;;;1.68;;
71176;SDS011;58877;51.992;4.504;2022-09-17T09:52:22;3.63;;;2.01;;
71176;SDS011;58877;51.992;4.504;2022-09-17T09:58:03;4.54;;;2.52;;
71176;SDS011;58877;51.992;4.504;2022-09-17T10:00:42;4.68;;;2.61;;
71176;SDS011;58877;51.992;4.504;2022-09-17T10:03:12;3.83;;;2.14;;
71176;SDS011;58877;51.992;4.504;2022-09-17T10:06:07;3.73;;;2.07;;
71176;SDS011;58877;51.992;4.504;2022-09-17T10:08:36;5.25;;;2.93;;
71176;SDS011;58877;51.992;4.504;2022-09-17T10:11:19;4.70;;;2.63;;
71176;SDS011;58877;51.992;4.504;2022-09-17T10:13:45;4.97;;;2.80;;
71176;SDS011;58877;51.992;4.504;2022-09-17T10:18:39;5.91;;;3.29;;
71176;SDS011;58877;51.992;4.504;2022-09-17T10:21:07;5.11;;;2.87;;
71176;SDS011;58877;51.992;4.504;2022-09-17T10:23:44;6.69;;;3.73;;
71176;SDS011;58877;51.992;4.504;2022-09-17T10:26:26;4.94;;;2.76;;
71176;SDS011;58877;51.992;4.504;2022-09-17T10:28:59;6.33;;;3.54;;
71176;SDS011;58877;51.992;4.504;2022-09-17T10:34:31;4.58;;;2.57;;
71176;SDS011;58877;51.992;4.504;2022-09-17T10:36:57;5.87;;;3.32;;
71176;SDS011;58877;51.992;4.504;2022-09-17T10:39:33;4.26;;;2.41;;
71176;SDS011;58877;51.992;4.504;2022-09-17T10:42:01;3.44;;;1.96;;
71176;SDS011;58877;51.992;4.504;2022-09-17T10:44:33;5.34;;;3.03;;
71176;SDS011;58877;51.992;4.504;2022-09-17T10:47:13;4.94;;;2.81;;
71176;SDS011;58877;51.992;4.504;2022-09-17T10:50:13;5.57;;;3.21;;
71176;SDS011;58877;51.992;4.504;2022-09-17T10:53:01;6.39;;;3.66;;
71176;SDS011;58877;51.992;4.504;2022-09-17T11:01:05;4.51;;;2.56;;
71176;SDS011;58877;51.992;4.504;2022-09-17T11:04:03;5.49;;;3.10;;
71176;SDS011;58877;51.992;4.504;2022-09-17T11:07:05;4.87;;;2.76;;
71176;SDS011;58877;51.992;4.504;2022-09-17T11:12:39;6.09;;;3.45;;
71176;SDS011;58877;51.992;4.504;2022-09-17T11:45:26;8.80;;;5.01;;
71176;SDS011;58877;51.992;4.504;2022-09-17T11:48:12;7.40;;;4.18;;
71176;SDS011;58877;51.992;4.504;2022-09-17T11:50:45;8.33;;;4.70;;
71176;SDS011;58877;51.992;4.504;2022-09-17T11:53:31;8.08;;;4.59;;
71176;SDS011;58877;51.992;4.504;2022-09-17T11:56:30;6.86;;;3.93;;
71176;SDS011;58877;51.992;4.504;2022-09-17T11:59:19;8.07;;;4.58;;
71176;SDS011;58877;51.992;4.504;2022-09-17T12:02:03;7.70;;;4.29;;
71176;SDS011;58877;51.992;4.504;2022-09-17T12:04:54;6.95;;;3.89;;
71176;SDS011;58877;51.992;4.504;2022-09-17T12:15:48;7.47;;;4.20;;
71176;SDS011;58877;51.992;4.504;2022-09-17T12:20:55;6.74;;;3.77;;
71176;SDS011;58877;51.992;4.504;2022-09-17T12:23:36;7.50;;;4.16;;
71176;SDS011;58877;51.992;4.504;2022-09-17T12:26:16;6.19;;;3.44;;
71176;SDS011;58877;51.992;4.504;2022-09-17T12:31:48;6.62;;;3.69;;
71176;SDS011;58877;51.992;4.504;2022-09-17T12:37:06;4.91;;;2.77;;
71176;SDS011;58877;51.992;4.504;2022-09-17T12:45:12;5.00;;;2.86;;
71176;SDS011;58877;51.992;4.504;2022-09-17T12:50:52;4.54;;;2.65;;
71176;SDS011;58877;51.992;4.504;2022-09-17T12:53:51;4.64;;;2.73;;
71176;SDS011;58877;51.992;4.504;2022-09-17T12:56:30;4.76;;;2.78;;
71176;SDS011;58877;51.992;4.504;2022-09-17T12:59:15;5.45;;;3.19;;
71176;SDS011;58877;51.992;4.504;2022-09-17T13:01:54;4.57;;;2.70;;
71176;SDS011;58877;51.992;4.504;2022-09-17T13:04:39;5.03;;;2.96;;
71176;SDS011;58877;51.992;4.504;2022-09-17T13:12:56;4.16;;;2.40;;
71176;SDS011;58877;51.992;4.504;2022-09-17T13:18:32;5.14;;;2.97;;
71176;SDS011;58877;51.992;4.504;2022-09-17T13:21:21;5.51;;;3.16;;
71176;SDS011;58877;51.992;4.504;2022-09-17T13:24:02;5.58;;;3.19;;
71176;SDS011;58877;51.992;4.504;2022-09-17T13:26:43;6.41;;;3.70;;
71176;SDS011;58877;51.992;4.504;2022-09-17T13:29:10;6.52;;;3.71;;
71176;SDS011;58877;51.992;4.504;2022-09-17T13:34:03;6.32;;;3.57;;
71176;SDS011;58877;51.992;4.504;2022-09-17T13:36:54;7.24;;;4.10;;
71176;SDS011;58877;51.992;4.504;2022-09-17T13:42:09;6.57;;;3.72;;
71176;SDS011;58877;51.992;4.504;2022-09-17T13:44:46;6.47;;;3.68;;
71176;SDS011;58877;51.992;4.504;2022-09-17T13:47:29;5.57;;;3.15;;
71176;SDS011;58877;51.992;4.504;2022-09-17T13:50:05;6.56;;;3.70;;
71176;SDS011;58877;51.992;4.504;2022-09-17T13:52:44;6.38;;;3.58;;
71176;SDS011;58877;51.992;4.504;2022-09-17T13:58:00;7.53;;;4.25;;
71176;SDS011;58877;51.992;4.504;2022-09-17T14:21:43;6.34;;;3.67;;
71176;SDS011;58877;51.992;4.504;2022-09-17T14:35:40;4.51;;;2.63;;
71176;SDS011;58877;51.992;4.504;2022-09-17T14:40:52;5.36;;;3.14;;
71176;SDS011;58877;51.992;4.504;2022-09-17T14:46:31;4.34;;;2.52;;
71176;SDS011;58877;51.992;4.504;2022-09-17T14:49:20;4.22;;;2.45;;
71176;SDS011;58877;51.992;4.504;2022-09-17T14:52:00;4.38;;;2.53;;
71176;SDS011;58877;51.992;4.504;2022-09-17T14:54:27;4.98;;;2.86;;
71176;SDS011;58877;51.992;4.504;2022-09-17T14:56:57;4.74;;;2.75;;
71176;SDS011;58877;51.992;4.504;2022-09-17T15:02:19;4.90;;;2.84;;
71176;SDS011;58877;51.992;4.504;2022-09-17T15:04:56;4.95;;;2.87;;
71176;SDS011;58877;51.992;4.504;2022-09-17T15:07:23;5.89;;;3.45;;
71176;SDS011;58877;51.992;4.504;2022-09-17T15:09:49;5.15;;;3.06;;
71176;SDS011;58877;51.992;4.504;2022-09-17T15:12:19;5.81;;;3.44;;
71176;SDS011;58877;51.992;4.504;2022-09-17T15:14:52;4.50;;;2.68;;
71176;SDS011;58877;51.992;4.504;2022-09-17T15:17:20;6.54;;;3.86;;
71176;SDS011;58877;51.992;4.504;2022-09-17T15:19:47;7.64;;;4.43;;
71176;SDS011;58877;51.992;4.504;2022-09-17T15:22:28;7.57;;;4.42;;
71176;SDS011;58877;51.992;4.504;2022-09-17T15:25:08;6.85;;;4.12;;
71176;SDS011;58877;51.992;4.504;2022-09-17T15:27:43;5.65;;;3.49;;
71176;SDS011;58877;51.992;4.504;2022-09-17T15:30:18;5.45;;;3.38;;
71176;SDS011;58877;51.992;4.504;2022-09-17T15:32:50;5.63;;;3.44;;
71176;SDS011;58877;51.992;4.504;2022-09-17T15:35:31;6.01;;;3.57;;
71176;SDS011;58877;51.992;4.504;2022-09-17T15:38:01;6.20;;;3.66;;
71176;SDS011;58877;51.992;4.504;2022-09-17T15:40:44;6.24;;;3.69;;
71176;SDS011;58877;51.992;4.504;2022-09-17T15:45:48;5.37;;;3.16;;
71176;SDS011;58877;51.992;4.504;2022-09-17T15:50:53;5.44;;;3.14;;
71176;SDS011;58877;51.992;4.504;2022-09-17T15:53:24;4.14;;;2.42;;
71176;SDS011;58877;51.992;4.504;2022-09-17T15:56:03;5.44;;;3.19;;
71176;SDS011;58877;51.992;4.504;2022-09-17T15:58:33;9.18;;;5.59;;
71176;SDS011;58877;51.992;4.504;2022-09-17T16:12:24;2.67;;;1.83;;
71176;SDS011;58877;51.992;4.504;2022-09-17T16:14:54;2.61;;;1.75;;
71176;SDS011;58877;51.992;4.504;2022-09-17T16:20:06;2.21;;;1.46;;
71176;SDS011;58877;51.992;4.504;2022-09-17T16:22:33;2.18;;;1.43;;
71176;SDS011;58877;51.992;4.504;2022-09-17T16:24:59;2.52;;;1.68;;
71176;SDS011;58877;51.992;4.504;2022-09-17T16:27:25;2.32;;;1.54;;
71176;SDS011;58877;51.992;4.504;2022-09-17T16:32:35;3.04;;;1.98;;
71176;SDS011;58877;51.992;4.504;2022-09-17T16:35:03;2.29;;;1.49;;
71176;SDS011;58877;51.992;4.504;2022-09-17T16:37:35;2.39;;;1.54;;
71176;SDS011;58877;51.992;4.504;2022-09-17T16:40:00;3.57;;;2.25;;
71176;SDS011;58877;51.992;4.504;2022-09-17T16:45:07;2.93;;;1.81;;
71176;SDS011;58877;51.992;4.504;2022-09-17T16:47:43;3.19;;;1.99;;
71176;SDS011;58877;51.992;4.504;2022-09-17T17:08:12;2.56;;;1.71;;
71176;SDS011;58877;51.992;4.504;2022-09-17T17:11:05;2.70;;;1.76;;
71176;SDS011;58877;51.992;4.504;2022-09-17T17:13:31;2.60;;;1.67;;
71176;SDS011;58877;51.992;4.504;2022-09-17T17:16:07;3.20;;;2.04;;
71176;SDS011;58877;51.992;4.504;2022-09-17T17:18:34;5.19;;;3.26;;
71176;SDS011;58877;51.992;4.504;2022-09-17T17:21:06;5.80;;;3.59;;
71176;SDS011;58877;51.992;4.504;2022-09-17T17:23:37;4.58;;;2.84;;
71176;SDS011;58877;51.992;4.504;2022-09-17T17:26:02;5.06;;;3.15;;
71176;SDS011;58877;51.992;4.504;2022-09-17T17:28:32;6.43;;;4.15;;
71176;SDS011;58877;51.992;4.504;2022-09-17T17:31:31;7.28;;;4.72;;
71176;SDS011;58877;51.992;4.504;2022-09-17T17:34:00;6.89;;;4.56;;
71176;SDS011;58877;51.992;4.504;2022-09-17T17:36:36;5.47;;;3.84;;
71176;SDS011;58877;51.992;4.504;2022-09-17T17:39:08;4.39;;;3.16;;
71176;SDS011;58877;51.992;4.504;2022-09-17T17:41:33;4.07;;;2.80;;
71176;SDS011;58877;51.992;4.504;2022-09-17T17:44:05;4.70;;;3.19;;
71176;SDS011;58877;51.992;4.504;2022-09-17T17:46:48;4.77;;;3.09;;
71176;SDS011;58877;51.992;4.504;2022-09-17T17:49:19;4.92;;;3.13;;
71176;SDS011;58877;51.992;4.504;2022-09-17T17:51:46;3.62;;;2.34;;
71176;SDS011;58877;51.992;4.504;2022-09-17T17:54:14;3.84;;;2.46;;
71176;SDS011;58877;51.992;4.504;2022-09-17T17:56:46;4.81;;;3.04;;
71176;SDS011;58877;51.992;4.504;2022-09-17T17:59:13;5.25;;;3.35;;
71176;SDS011;58877;51.992;4.504;2022-09-17T18:01:38;4.18;;;2.74;;
71176;SDS011;58877;51.992;4.504;2022-09-17T18:04:11;3.54;;;2.34;;
71176;SDS011;58877;51.992;4.504;2022-09-17T18:06:37;4.30;;;2.88;;
71176;SDS011;58877;51.992;4.504;2022-09-17T18:09:06;3.09;;;2.10;;
71176;SDS011;58877;51.992;4.504;2022-09-17T18:11:32;3.72;;;2.51;;
71176;SDS011;58877;51.992;4.504;2022-09-17T18:13:59;2.86;;;1.97;;
71176;SDS011;58877;51.992;4.504;2022-09-17T18:16:28;3.30;;;2.22;;
71176;SDS011;58877;51.992;4.504;2022-09-17T18:19:07;3.12;;;2.09;;
71176;SDS011;58877;51.992;4.504;2022-09-17T18:21:37;2.41;;;1.61;;
71176;SDS011;58877;51.992;4.504;2022-09-17T18:24:02;2.36;;;1.59;;
71176;SDS011;58877;51.992;4.504;2022-09-17T18:26:28;2.88;;;1.94;;
71176;SDS011;58877;51.992;4.504;2022-09-17T18:29:00;3.10;;;2.07;;
71176;SDS011;58877;51.992;4.504;2022-09-17T18:32:00;2.43;;;1.61;;
71176;SDS011;58877;51.992;4.504;2022-09-17T18:34:26;2.49;;;1.68;;
71176;SDS011;58877;51.992;4.504;2022-09-17T18:36:56;2.66;;;1.79;;
71176;SDS011;58877;51.992;4.504;2022-09-17T18:39:24;2.96;;;1.97;;
71176;SDS011;58877;51.992;4.504;2022-09-17T18:41:55;3.05;;;2.10;;
71176;SDS011;58877;51.992;4.504;2022-09-17T18:44:27;2.35;;;1.64;;
71176;SDS011;58877;51.992;4.504;2022-09-17T18:46:57;2.43;;;1.66;;
71176;SDS011;58877;51.992;4.504;2022-09-17T18:49:25;2.83;;;1.89;;
71176;SDS011;58877;51.992;4.504;2022-09-17T18:51:51;3.45;;;2.30;;
71176;SDS011;58877;51.992;4.504;2022-09-17T18:54:16;3.55;;;2.33;;
71176;SDS011;58877;51.992;4.504;2022-09-17T18:56:42;4.41;;;2.92;;
71176;SDS011;58877;51.992;4.504;2022-09-17T18:59:09;3.94;;;2.64;;
71176;SDS011;58877;51.992;4.504;2022-09-17T19:01:35;3.48;;;2.29;;
71176;SDS011;58877;51.992;4.504;2022-09-17T19:04:01;4.11;;;2.63;;